Strona główna
METAR-TAF:

METAR-TAF

Lotnisko :

Port lotniczy Rangun

Rangun, Mjanma

Szerokość geograficzna: 16-46N, Długość geograficzna: 096-10E, wysokość: 14 m

Aktualna obserwacja pogody

Raport powstał 19 minut temu, godzina 01:00 UTC
Cisza
Temperatura 21°C
Wilgotność 100%
Ciśnienie 1011 hPa
Widzialność: 0500 m
mgła

METAR: VYYY 230100Z 00000KT 0500 FG //// 21/21 Q1011

czas: 07:49 (01:19 UTC)

Prognoza

Raport powstał 2 godziny i 19 minut temu, godzina 23:00 UTC
Prognoza ważna od 23 godzina 00 UTC do 23 godzina 24 UTC
Wiatr 5 kt od zachód
Widzialność: 7000 m
Stopniowe zmiany
od 23 godzina 00 UTC do 23 godzina 02 UTC
Widzialność: 3000 m
zamglenie
Przejściowo
od 23 godzina 09 UTC do 23 godzina 12 UTC
Mało chmury na wysokości 2000 ft

TAF: VYYY 222300Z 2300/2324 26005KT 7000 NSC BECMG 2300/2302 3000 BR TEMPO 2309/2312 FEW020

Obserwacja i prognoza pogody dla ponad 4000 lotnisk (raport METAR i TAF).

Dostępne stacje oznaczono żółtymi i czerwonymi punktami na mapie.

Najedź kursorem aby zobaczyć nazwę stacji.

Kliknij aby zobaczyć obserwacje i prognozy pogody.

Aby zmienić mapę: kliknij na zielony przycisk z czarnym krzyżykiem, aby powiększyć; na zielony przycisk z myślnikiem, aby pomniejszyć; na zielone strzałki, aby przejść do map sąsiednich.


METAR-TAF: